Notice: iconv(): Detected an illegal character in input string in /home/meteolat/www/weather28/wsLangFunctions.php on line 115

Notice: iconv(): Detected an illegal character in input string in /home/meteolat/www/weather28/wsLangFunctions.php on line 115
Météorologique de l'aéroport - Météo La Turballe
Pas de vigilance météorologique particulière.    Il n'y a aucun avertissement

Visitez nos sites météorologiques autres:

Template documentation
and downloads

And another site



Rapports METAR proximité

   
EHVK - Volkel Rnlafb, Netherlands
Distance: SO 18 km
Mise à jour: 14-04-2021 10:55
Nuageux  
Nuageux  
   Vent: varie 3.7 km/h
Vent: varie 3.7 km/h
Température: 6°C
Point de rosée: -1°C
Humidité: 61%
Baromètre: 1031 hPa
Nuageux: Nuageux
visibilité: More than 10 km
Détails des nuages: Nuageux 5200 ft,
Nuageux 5700 ft
EHVK 140855Z AUTO VRB02KT 9999 BKN052 OVC057 06/M01 Q1031 BLU NOSIG
EDLV - Niederrhein, Germany
Distance: SE 25 km
Mise à jour: 14-04-2021 10:50
Claires  
Claires  
   Vent: Sud 7.4 km/h
Vent: Sud 7.4 km/h
Température: 6°C
éolien: 4°C
Point de rosée: 0°C
Humidité: 66%
Baromètre: 1032 hPa
visibilité: More than 10 km
Détails des nuages: Claires
EDLV 140850Z 18004KT 130V220 CAVOK 06/00 Q1032
EHDL - Deelen Rnlafb, Netherlands
Distance: N 35 km
Mise à jour: 14-04-2021 10:55
Nuageux  
Nuageux  
   Vent: varie 5.6 km/h
Vent: varie 5.6 km/h
Température: 6°C
éolien: 5°C
Point de rosée: -1°C
Humidité: 61%
Baromètre: 1031 hPa
Nuageux: Nuageux
visibilité: More than 10 km
Détails des nuages: Partiellement nuageux 3400 ft,
Nuageux 4100 ft,
Nuageux 4600 ft
EHDL 140855Z AUTO VRB03KT 9999 SCT034 BKN041 BKN046 06/M01 Q1031 BLU
EHEH - Eindhoven Rnlafb, Netherlands
Distance: SO 48 km
Mise à jour: 14-04-2021 10:55
Nuageux  
Nuageux  
   Vent: varie 5.6 km/h
Vent: varie 5.6 km/h
Température: 8°C
éolien: 7°C
Point de rosée: -4°C
Humidité: 43%
Baromètre: 1031 hPa
Nuageux: Nuageux
visibilité: More than 10 km
Détails des nuages: Nuageux 5200 ft
EHEH 140855Z AUTO VRB03KT 9999 OVC052 08/M04 Q1031 BLU NOSIG
EHGR - Gilze-Rijen Rnla, Netherlands
Distance: OSO 70 km
Mise à jour: 14-04-2021 10:55
Nuageux  
Nuageux  
   Vent: NNE 11.1 km/h
Vent: NNE 11.1 km/h
Température: 6°C
éolien: 4°C
Point de rosée: -1°C
Humidité: 61%
Baromètre: 1031 hPa
Nuageux: Nuageux
visibilité: More than 10 km
Détails des nuages: Peu de nuages 5500 ft,
Nuageux 6200 ft,
Nuageux 6900 ft
EHGR 140855Z AUTO 02006KT 320V060 9999 FEW055 BKN062 OVC069 06/M01 Q1031 BLU NOSIG
EBBL - Kleine-Brogel(Ba, Belgium
Distance: SSO 71 km
Mise à jour: 14-04-2021 10:25
Nuageux  
Nuageux  
   Vent: varie 3.7 km/h
Vent: varie 3.7 km/h
Température: 7°C
Point de rosée: -3°C
Humidité: 49%
Baromètre: 1031 hPa
Nuageux: Nuageux
visibilité: More than 10 km
Détails des nuages: Nuageux 8000 ft
EBBL 140825Z VRB02KT 9999 BKN080 07/M03 Q1031 BLU BLU

Script développé par  Saratoga-weather.org Adapté pour le modèle par  Weerstation Leuven

Équipement que nous utilisons:

Station de Météo
Davis VUE

Davis VUE